Latest Weather Observations for Coondewanna

IDW60801

Issued at 7:35 am WST Saturday 29 November 2014 (issued every 30 minutes, with the page automatically refreshed every 10 minutes)

About weather observations | Map of weather stations | Latest weather observations for WA | Other Formats
Station Details ID: 505051 Name: COONDEWANNA Lat: -22.96 Lon: 118.81 Height: 697.63 m
Data from the previous 72 hours. | See also: Recent months for locations in Western Australia
Date/Time
WST
Temp
°C
App
Temp
°C
Dew
Point
Rel
Hum
%
Delta-T
°C
Wind Press
QNH
hPa
Press
MSL
hPa
Rain
since 9 am
mm
Dir
 
Spd
km/h
Gust
km/h
Spd
kts
Gust
kts
29/07:30am 24.6 25.0 14.7 54 6.1 E 6 7 3 4 1013.4 1008.0 0.0
29/07:00am 22.6 23.2 15.9 66 4.2 E 7 9 4 5 1013.4 1008.0 0.0
29/06:30am 20.7 22.4 17.1 80 2.3 E 4 7 2 4 1013.4 1008.0 0.0
29/06:00am 20.0 21.8 16.4 80 2.2 E 2 6 1 3 1013.2 1007.7 0.0
29/05:30am 17.6 19.7 16.3 92 0.8 CALM 0 0 0 0 1013.1 1007.6 0.0
29/05:00am 17.7 19.8 16.2 91 0.9 CALM 0 0 0 0 1013.0 1007.5 0.0
29/04:30am 18.3 20.5 16.6 90 1.1 CALM 0 0 0 0 1012.9 1007.4 0.0
29/04:00am 19.3 20.2 16.7 85 1.6 E 7 9 4 5 1012.9 1007.4 0.0
29/03:30am 19.2 20.5 17.2 88 1.3 E 6 7 3 4 1012.8 1007.3 0.0
29/03:00am 19.3 21.4 17.3 88 1.3 E 2 6 1 3 1012.7 1007.2 0.0
29/02:30am 20.2 21.3 18.0 87 1.4 NE 9 9 5 5 1012.7 1007.2 0.0
29/02:00am 20.0 22.4 18.0 88 1.3 N 2 6 1 3 1012.7 1007.2 0.0
29/01:30am 21.0 22.7 18.6 86 1.5 N 7 9 4 5 1012.7 1007.2 0.0
29/01:00am 21.2 23.1 18.6 85 1.7 N 6 7 3 4 1013.0 1007.5 0.0
29/12:30am 21.8 24.5 18.6 82 2.1 N 2 6 1 3 1013.2 1007.7 0.0
29/12:00am 21.8 25.1 19.2 85 1.7 CALM 0 0 0 0 1013.4 1008.0 0.0
 
Date/Time
WST
Temp
°C
App
Temp
°C
Dew
Point
Rel
Hum
%
Delta-T
°C
Wind Press
QNH
hPa
Press
MSL
hPa
Rain
since 9 am
mm
Dir
 
Spd
km/h
Gust
km/h
Spd
kts
Gust
kts
28/11:30pm 23.0 25.9 18.3 75 3.0 CALM 0 7 0 4 1013.7 1008.2 0.0
28/11:00pm 23.5 25.4 18.6 74 3.2 N 6 9 3 5 1013.9 1008.4 0.0
28/10:30pm 25.1 26.9 17.3 62 5.0 N 4 11 2 6 1014.0 1008.5 0.0
28/10:00pm 24.7 26.6 18.6 69 4.0 WNW 6 9 3 5 1014.2 1008.7 0.0
28/09:30pm 25.5 27.6 18.2 64 4.7 WNW 4 7 2 4 1014.2 1008.7 0.0
28/09:00pm 25.8 28.4 19.2 67 4.4 WNW 4 7 2 4 1014.0 1008.5 0.0
28/08:30pm 26.1 28.0 18.5 63 5.0 E 6 9 3 5 1013.7 1008.2 0.0
28/08:00pm 26.3 28.1 18.4 61 5.2 E 6 9 3 5 1013.3 1007.8 0.0
28/07:30pm 27.6 28.8 16.9 52 6.9 E 6 9 3 5 1013.0 1007.5 0.0
28/07:00pm 28.5 29.1 15.4 45 8.3 E 6 9 3 5 1012.6 1007.1 0.0
28/06:30pm 29.5 29.1 14.1 39 9.5 E 9 11 5 6 1012.1 1006.5 0.0
28/06:00pm 30.5 30.3 13.7 35 10.4 N 7 11 4 6 1011.5 1006.0 0.0
28/05:30pm 30.9 29.6 13.7 35 10.6 NNE 13 17 7 9 1011.2 1005.7 0.0
28/05:00pm 30.6 28.7 15.1 39 9.8 N 19 26 10 14 1011.0 1005.5 0.0
28/04:33pm 31.2 28.0 16.4 41 9.5 N 28 46 15 25 1011.0 1005.5 0.0
28/04:30pm 32.0 30.2 15.9 38 10.3 N 20 22 11 12 1010.9 1005.4 0.0
28/04:00pm 34.4 33.0 13.3 28 13.2 NW 13 22 7 12 1010.6 1005.0 0.0
28/03:30pm 33.9 30.2 12.8 28 13.0 NNW 24 33 13 18 1010.8 1005.2 0.0
28/03:00pm 33.7 30.1 14.2 30 12.3 NNW 26 35 14 19 1010.9 1005.4 0.0
28/02:30pm 32.1 31.8 16.4 39 10.1 N 13 19 7 10 1011.2 1005.7 0.0
28/02:00pm 32.2 30.7 15.2 35 10.8 NNW 17 24 9 13 1011.5 1006.0 0.0
28/01:30pm 32.5 31.8 16.3 37 10.5 N 15 24 8 13 1011.9 1006.4 0.0
28/01:00pm 32.0 29.9 14.6 34 11.0 NNW 19 30 10 16 1012.4 1006.9 0.0
28/12:30pm 32.8 31.9 15.8 36 10.9 NW 15 32 8 17 1012.9 1007.4 0.0
28/12:00pm 32.1 30.0 15.1 35 10.8 NW 20 26 11 14 1013.4 1008.0 0.0
28/11:30am 31.7 30.9 15.2 36 10.5 W 13 20 7 11 1013.8 1008.3 0.0
28/11:00am 30.8 29.7 17.8 45 8.5 WNW 20 28 11 15 1014.2 1008.7 0.0
28/10:30am 29.7 29.0 16.5 45 8.5 NNW 15 20 8 11 1014.5 1009.0 0.0
28/10:00am 28.7 29.4 17.9 52 7.1 NW 11 24 6 13 1014.8 1009.4 0.0
28/09:30am 27.1 28.6 18.1 58 5.9 NW 7 11 4 6 1015.2 1009.7 0.0
28/09:00am 26.1 27.6 17.7 60 5.4 W 6 11 3 6 1015.4 1009.9 26.6
28/08:30am 25.0 26.5 17.7 64 4.7 W 6 9 3 5 1015.5 1010.0 26.6
28/08:00am 23.9 25.6 17.2 66 4.3 E 4 7 2 4 1015.4 1009.9 26.6
28/07:30am 23.1 25.5 17.1 69 3.8 CALM 0 0 0 0 1015.4 1009.9 26.6
28/07:00am 22.0 24.6 17.4 75 2.9 CALM 0 0 0 0 1015.0 1009.6 26.6
28/06:30am 21.1 23.5 16.9 77 2.6 CALM 0 0 0 0 1014.8 1009.4 26.6
28/06:00am 19.7 22.3 17.5 87 1.4 CALM 0 0 0 0 1014.7 1009.2 26.6
28/05:30am 18.6 21.2 17.6 94 0.6 CALM 0 0 0 0 1014.6 1009.1 26.6
28/05:00am 18.5 21.1 17.5 94 0.6 CALM 0 0 0 0 1014.3 1008.8 26.6
28/04:30am 18.8 21.0 17.5 92 0.8 E 2 7 1 4 1014.3 1008.8 26.6
28/04:00am 18.8 21.4 17.6 93 0.8 CALM 0 0 0 0 1014.2 1008.7 26.6
28/03:30am 18.7 21.4 17.7 94 0.6 CALM 0 0 0 0 1014.1 1008.6 26.6
28/03:00am 18.9 21.6 17.7 93 0.8 CALM 0 0 0 0 1014.1 1008.6 26.6
28/02:30am 18.7 21.3 17.4 92 0.8 CALM 0 0 0 0 1014.3 1008.8 26.6
28/02:00am 19.0 21.1 17.3 90 1.1 E 2 6 1 3 1014.2 1008.7 26.6
28/01:30am 19.6 20.7 17.0 85 1.6 E 7 9 4 5 1014.3 1008.8 26.6
28/01:00am 19.6 21.3 17.2 86 1.5 E 4 7 2 4 1014.6 1009.1 26.6
28/12:30am 19.7 20.4 17.1 85 1.6 NE 9 15 5 8 1015.3 1009.8 26.6
28/12:00am 20.0 20.6 17.6 86 1.5 ENE 11 15 6 8 1015.7 1010.2 26.6
 
Date/Time
WST
Temp
°C
App
Temp
°C
Dew
Point
Rel
Hum
%
Delta-T
°C
Wind Press
QNH
hPa
Press
MSL
hPa
Rain
since 9 am
mm
Dir
 
Spd
km/h
Gust
km/h
Spd
kts
Gust
kts
27/11:30pm 19.7 20.1 18.2 91 1.0 E 13 19 7 10 1016.1 1010.7 26.6
27/11:00pm 20.0 21.1 18.0 88 1.3 E 9 15 5 8 1016.2 1010.8 26.6
27/10:30pm 20.1 20.6 18.4 90 1.1 E 13 17 7 9 1016.5 1011.1 25.2
27/10:00pm 20.3 20.4 18.4 89 1.2 E 15 20 8 11 1016.4 1011.0 25.0
27/09:30pm 20.1 19.3 18.4 90 1.1 ESE 20 24 11 13 1015.9 1010.4 25.0
27/09:00pm 19.2 18.3 18.2 94 0.6 E 20 26 11 14 1016.1 1010.7 24.8
27/08:32pm 19.0 19.3 17.8 93 0.8 ENE 13 17 7 9 1017.2 1011.7 23.6
27/08:30pm 18.9 19.5 17.7 93 0.8 NE 11 15 6 8 1017.3 1011.8 23.4
27/08:05pm 18.8 14.9 16.4 86 1.5 W 32 50 17 27 1017.2 1011.7 18.8
27/08:01pm 20.9 18.0 17.9 83 1.9 W 30 50 16 27 1016.7 1011.2 15.2
27/08:00pm 21.1 18.9 17.9 82 2.0 W 26 44 14 24 1016.5 1011.1 15.2
27/07:58pm 21.6 20.5 17.8 79 2.4 W 20 30 11 16 1016.0 1010.5 15.0
27/07:30pm 21.8 20.6 17.6 77 2.7 E 20 28 11 15 1013.9 1008.4 15.0
27/07:00pm 21.1 21.3 17.7 81 2.2 ESE 13 17 7 9 1013.8 1008.3 15.0
27/06:30pm 19.6 20.6 17.7 89 1.2 NNE 9 17 5 9 1014.5 1009.0 15.0
27/06:00pm 20.2 19.3 17.8 86 1.5 E 19 24 10 13 1013.7 1008.2 14.4
27/05:33pm 19.2 18.2 17.5 90 1.1 SSW 19 22 10 12 1014.4 1008.9 13.4
27/05:30pm 19.2 20.0 17.3 89 1.2 E 9 17 5 9 1014.2 1008.7 13.2
27/05:02pm 18.4 15.1 14.9 80 2.1 NW 26 35 14 19 1014.3 1008.8 6.8
27/05:00pm 19.3 13.8 14.6 74 2.8 W 37 61 20 33 1014.2 1008.7 5.8
27/04:59pm 19.2 13.4 14.9 76 2.6 W 39 61 21 33 1014.1 1008.6 5.2
27/04:47pm 21.7 18.0 16.0 70 3.5 W 30 59 16 32 1013.4 1008.0 1.6
27/04:30pm 24.2 21.2 15.9 59 5.2 W 26 43 14 23 1011.6 1006.1 0.2
27/04:28pm 26.3 24.9 17.9 60 5.4 W 22 35 12 19 1011.7 1006.2 0.0
27/04:00pm 31.3 30.8 14.9 37 10.4 N 11 19 6 10 1011.3 1005.8 0.0
27/03:30pm 31.9 31.1 14.1 34 11.1 N 11 22 6 12 1011.3 1005.8 0.0
27/03:00pm 32.2 30.3 14.3 33 11.2 NNE 17 28 9 15 1011.8 1006.3 0.0
27/02:30pm 33.2 31.3 14.3 32 11.9 N 17 28 9 15 1012.3 1006.8 0.0
27/02:00pm 32.3 30.4 15.3 35 10.8 NNE 19 24 10 13 1012.8 1007.3 0.0
27/01:30pm 31.5 29.3 15.9 39 10.0 NE 22 33 12 18 1013.0 1007.5 0.0
27/01:00pm 31.4 29.9 16.2 40 9.8 N 19 26 10 14 1013.4 1008.0 0.0
27/12:30pm 30.9 29.0 15.7 39 9.7 NE 20 30 11 16 1013.7 1008.2 0.0
27/12:00pm 30.5 29.0 15.4 40 9.6 NE 17 28 9 15 1013.9 1008.4 0.0
27/11:30am 29.0 27.2 15.5 44 8.5 NNE 19 28 10 15 1014.3 1008.8 0.0
27/11:00am 28.4 27.9 17.0 50 7.3 NNE 15 24 8 13 1014.7 1009.2 0.0
27/10:30am 27.4 25.6 16.1 50 7.2 ENE 20 30 11 16 1014.9 1009.5 0.0
27/10:00am 26.4 24.8 16.6 55 6.2 NE 20 30 11 16 1015.4 1009.9 0.0
27/09:30am 25.7 25.4 17.4 60 5.3 NE 15 26 8 14 1015.6 1010.1 0.0
27/09:00am 24.6 24.3 18.3 68 4.1 E 17 24 9 13 1015.6 1010.1 17.2
27/08:30am 23.5 22.4 17.3 68 3.9 NE 19 24 10 13 1015.8 1010.3 17.2
27/08:00am 22.7 21.7 16.7 69 3.8 ENE 17 20 9 11 1015.7 1010.2 17.2
27/07:30am 21.7 20.2 16.2 71 3.4 ENE 19 26 10 14 1015.9 1010.4 17.2
27/07:00am 21.2 20.5 16.4 74 3.0 E 15 22 8 12 1015.8 1010.3 17.2
27/06:30am 20.1 18.8 16.9 82 2.0 ENE 19 28 10 15 1015.8 1010.3 17.2
27/06:00am 19.6 18.8 17.0 85 1.6 E 17 22 9 12 1015.4 1009.9 17.2
27/05:30am 18.9 17.6 16.7 87 1.4 E 19 28 10 15 1015.2 1009.7 17.2
27/05:00am 19.0 17.4 16.4 85 1.6 E 20 28 11 15 1014.9 1009.5 17.2
27/04:30am 19.0 18.2 17.0 88 1.2 E 17 24 9 13 1014.7 1009.2 17.2
27/04:00am 18.9 18.0 16.9 88 1.2 E 17 26 9 14 1014.7 1009.2 17.2
27/03:30am 19.1 16.9 16.9 87 1.4 ESE 24 32 13 17 1014.3 1008.8 17.2
27/03:00am 19.2 18.6 16.6 85 1.6 E 15 20 8 11 1014.9 1009.5 17.2
27/02:30am 19.3 18.3 16.7 85 1.6 ESE 17 22 9 12 1014.7 1009.2 17.2
27/02:00am 19.3 19.5 16.7 85 1.6 SE 11 17 6 9 1015.0 1009.6 17.2
27/01:30am 19.3 20.2 16.5 84 1.7 ENE 7 13 4 7 1014.8 1009.4 17.2
27/01:00am 19.4 20.1 16.2 82 2.0 SSE 7 15 4 8 1014.2 1008.7 17.2
27/12:30am 19.4 19.8 16.2 82 2.0 NE 9 17 5 9 1014.4 1008.9 17.2
27/12:00am 19.5 17.8 16.3 82 2.0 E 20 24 11 13 1014.5 1009.0 17.2
 
Date/Time
WST
Temp
°C
App
Temp
°C
Dew
Point
Rel
Hum
%
Delta-T
°C
Wind Press
QNH
hPa
Press
MSL
hPa
Rain
since 9 am
mm
Dir
 
Spd
km/h
Gust
km/h
Spd
kts
Gust
kts
26/11:30pm 19.3 19.9 16.7 85 1.6 S 9 17 5 9 1015.5 1010.0 17.0
26/11:00pm 19.6 18.9 16.4 82 2.0 SSW 15 24 8 13 1015.8 1010.3 16.6
26/10:30pm 19.6 18.5 16.4 82 2.0 E 17 26 9 14 1015.2 1009.7 16.6
26/10:00pm 19.5 17.4 16.3 82 2.0 ESE 22 32 12 17 1014.9 1009.5 16.6
26/09:30pm 19.6 18.0 15.9 79 2.3 E 19 24 10 13 1014.5 1009.0 16.6
26/09:00pm 20.1 18.3 15.9 77 2.6 SE 20 30 11 16 1015.9 1010.4 16.2
26/08:30pm 20.2 18.1 16.2 78 2.5 SE 22 28 12 15 1014.0 1008.5 15.6
26/08:00pm 20.8 18.6 16.8 78 2.5 SSW 24 32 13 17 1014.0 1008.5 14.2
26/07:30pm 20.7 19.4 15.9 74 3.0 WSW 17 24 9 13 1013.4 1008.0 14.2
26/07:00pm 20.6 19.1 20.3 98 0.2 E 28 39 15 21 1012.5 1007.0 14.2
26/06:30pm 20.6 19.9 20.3 98 0.2 E 24 30 13 16 1012.1 1006.5 13.4
26/06:03pm 20.3 21.2 20.0 98 0.2 ENE 15 20 8 11 1012.9 1007.4 12.8
26/06:00pm 20.4 21.3 20.1 98 0.2 E 15 24 8 13 1013.1 1007.6 12.6
26/05:52pm 20.3 21.5 20.0 98 0.2 NW 13 19 7 10 1012.8 1007.3 11.8
26/05:30pm 20.8 21.8 20.3 97 0.3 W 15 22 8 12 1012.7 1007.2 8.6
26/05:00pm 19.7 17.0 19.2 97 0.3 SW 32 43 17 23 1011.7 1006.2 7.0
26/04:59pm 19.5 16.7 19.0 97 0.3 SSW 32 41 17 22 1011.7 1006.2 7.0
26/04:57pm 19.9 15.2 19.4 97 0.3 SSE 43 56 23 30 1010.3 1004.8 7.0
26/04:45pm 20.3 12.0 19.8 97 0.3 SSE 63 83 34 45 1009.3 1003.7 7.0
26/04:30pm 18.0 6.9 17.5 97 0.3 S 72 104 39 56 1009.5 1004.0 7.0
26/04:22pm 16.6 4.1 15.8 95 0.5 S 76 95 41 51 1009.6 1004.1 5.8
26/04:20pm 16.7 4.1 15.6 93 0.7 S 76 93 41 50 1009.6 1004.1 5.2
26/04:18pm 18.1 10.1 16.6 91 0.9 S 54 80 29 43 1009.6 1004.1 3.8
26/04:17pm 19.0 12.0 17.3 90 1.1 S 50 72 27 39 1009.6 1004.1 3.4
26/04:15pm 20.2 17.8 18.3 89 1.2 S 28 54 15 29 1009.5 1004.0 2.8
26/04:12pm 25.1 23.9 18.3 66 4.4 S 22 35 12 19 1009.7 1004.2 2.2
26/04:00pm 30.4 30.6 16.8 44 8.8 NE 11 19 6 10 1009.4 1003.8 1.4
26/03:30pm 33.9 30.3 9.9 23 14.2 NE 19 24 10 13 1009.9 1004.4 0.0
26/03:00pm 34.0 30.4 10.6 24 14.0 NE 20 28 11 15 1010.3 1004.8 0.0
26/02:30pm 34.1 30.5 10.7 24 14.0 NNE 20 39 11 21 1010.8 1005.2 0.0
26/02:00pm 34.2 30.6 10.7 24 14.1 NE 20 33 11 18 1011.4 1005.9 0.0
26/01:30pm 33.9 29.7 11.1 25 13.7 N 24 32 13 17 1011.6 1006.1 0.0
26/01:00pm 33.7 30.2 10.9 25 13.7 ENE 20 33 11 18 1012.3 1006.8 0.0
26/12:30pm 33.4 29.1 9.4 23 14.1 NNE 22 32 12 17 1012.5 1007.0 0.0
26/12:00pm 33.6 29.3 10.9 25 13.6 NE 24 32 13 17 1012.8 1007.3 0.0
26/11:30am 33.1 28.4 9.2 23 13.9 NE 24 37 13 20 1013.1 1007.6 0.0
26/11:00am 33.4 29.0 8.8 22 14.3 NE 22 39 12 21 1013.4 1008.0 0.0
26/10:30am 32.5 28.2 9.3 24 13.5 NE 22 32 12 17 1013.8 1008.3 0.0
26/10:00am 31.5 26.9 9.7 26 12.7 ENE 24 37 13 20 1014.2 1008.7 0.0
26/09:30am 30.4 25.6 10.4 29 11.7 ENE 26 35 14 19 1014.4 1008.9 0.0
26/09:00am 29.2 24.0 10.3 31 11.0 ENE 28 41 15 22 1014.7 1009.2 1.2
26/08:30am 28.4 24.7 11.5 35 10.0 ENE 22 35 12 19 1015.0 1009.6 1.2
26/08:00am 26.9 24.0 12.2 40 8.8 ENE 19 22 10 12 1015.3 1009.8 1.2

Other Formats:

Comma delimited format used in spreadsheet applications
http://www.bom.gov.au/fwo/IDW60801/IDW60801.99312.axf

JavaScript Object Notation format (JSON) in row-major order
http://www.bom.gov.au/fwo/IDW60801/IDW60801.99312.json